createdAt,value
2019-04-20T00:01:12.649Z,57.97
2019-04-20T00:03:43.249Z,66.33
2019-04-20T00:06:15.210Z,74.20
2019-04-20T00:08:47.704Z,69.27
2019-04-20T00:11:27.512Z,60.13
2019-04-20T00:14:01.259Z,58.73
2019-04-20T00:16:27.231Z,64.03
2019-04-20T00:19:05.027Z,60.67
2019-04-20T00:21:49.560Z,60.87
2019-04-20T00:24:23.373Z,53.60
2019-04-20T00:29:47.984Z,48.80
2019-04-20T00:32:12.548Z,41.97
2019-04-20T00:34:39.875Z,49.17
2019-04-20T00:37:08.819Z,52.30
2019-04-20T00:39:40.583Z,48.40
2019-04-20T00:42:15.862Z,41.40
2019-04-20T00:44:49.639Z,43.10
2019-04-20T00:47:30.443Z,43.20
2019-04-20T00:50:05.531Z,49.17
2019-04-20T00:52:47.078Z,47.67
2019-04-20T00:55:04.119Z,42.97
2019-04-20T00:57:46.682Z,47.30
2019-04-20T01:00:26.873Z,45.00
2019-04-20T01:02:53.270Z,58.40
2019-04-20T01:05:27.671Z,53.93
2019-04-20T01:08:08.334Z,57.30
2019-04-20T01:10:44.968Z,43.07
2019-04-20T01:13:15.584Z,42.97
2019-04-20T01:15:51.588Z,39.53
2019-04-20T01:18:36.945Z,48.17
2019-04-20T01:21:16.504Z,42.03
2019-04-20T01:23:50.702Z,46.00
2019-04-20T01:26:19.704Z,41.73
2019-04-20T01:29:02.889Z,46.67
2019-04-20T01:31:35.529Z,50.10
2019-04-20T01:34:06.150Z,44.33
2019-04-20T01:36:49.078Z,44.87
2019-04-20T01:39:13.588Z,42.73
2019-04-20T01:41:35.140Z,42.20
2019-04-20T01:46:46.696Z,44.53
2019-04-20T01:49:18.260Z,37.83
2019-04-20T01:51:52.516Z,38.30
2019-04-20T01:54:33.933Z,38.00
2019-04-20T01:57:04.140Z,40.13
2019-04-20T01:59:35.975Z,39.00
2019-04-20T02:02:07.003Z,39.10
2019-04-20T02:04:41.989Z,38.07
2019-04-20T02:07:12.050Z,36.53
2019-04-20T02:09:51.377Z,44.67
2019-04-20T02:12:23.616Z,41.17
2019-04-20T02:14:54.076Z,46.27
2019-04-20T02:17:30.057Z,33.47
2019-04-20T02:20:14.132Z,34.77
2019-04-20T02:22:44.165Z,36.97
2019-04-20T02:24:59.546Z,36.67
2019-04-20T02:27:40.883Z,34.73
2019-04-20T02:30:41.114Z,37.53
2019-04-20T02:39:13.713Z,40.23
2019-04-20T02:41:23.605Z,44.00
2019-04-20T02:43:58.038Z,39.67
2019-04-20T02:46:22.507Z,48.50
2019-04-20T02:49:06.166Z,40.03
2019-04-20T02:51:28.063Z,39.97
2019-04-20T02:54:14.092Z,35.47
2019-04-20T02:59:29.638Z,31.80
2019-04-20T03:01:45.494Z,34.93
2019-04-20T03:04:04.322Z,34.87
2019-04-20T03:06:48.383Z,34.00
2019-04-20T03:09:32.828Z,33.87
2019-04-20T03:12:08.182Z,32.53
2019-04-20T03:14:33.607Z,31.80
2019-04-20T03:17:18.205Z,29.73
2019-04-20T03:19:41.165Z,30.20
2019-04-20T03:22:24.584Z,28.37
2019-04-20T03:24:54.008Z,30.13
2019-04-20T03:27:20.926Z,33.00
2019-04-20T03:30:21.756Z,27.93
2019-04-20T03:33:02.865Z,30.63
2019-04-20T03:35:20.716Z,28.57
2019-04-20T03:37:56.818Z,25.27
2019-04-20T03:40:19.327Z,28.93
2019-04-20T03:42:37.320Z,31.37
2019-04-20T03:45:14.978Z,32.37
2019-04-20T03:47:52.853Z,30.37
2019-04-20T03:50:35.568Z,28.13
2019-04-20T03:53:13.953Z,31.83
2019-04-20T03:55:49.179Z,29.77
2019-04-20T03:58:28.533Z,39.37
2019-04-20T04:03:53.406Z,30.60
2019-04-20T04:06:19.838Z,30.10
2019-04-20T04:08:55.026Z,29.97
2019-04-20T04:11:32.659Z,31.40
2019-04-20T04:13:48.329Z,31.43
2019-04-20T04:16:22.698Z,27.70
2019-04-20T04:19:07.836Z,26.00
2019-04-20T04:21:40.857Z,29.93
2019-04-20T04:24:14.352Z,36.73
2019-04-20T04:26:50.045Z,34.83
2019-04-20T04:29:30.159Z,34.17
2019-04-20T04:32:09.301Z,42.60
2019-04-20T04:34:30.724Z,35.57
2019-04-20T04:37:03.248Z,41.17
2019-04-20T04:39:37.005Z,42.07
2019-04-20T04:42:16.948Z,54.07
2019-04-20T04:44:50.571Z,48.37
2019-04-20T04:47:16.869Z,42.83
2019-04-20T04:49:59.213Z,45.90
2019-04-20T04:52:34.168Z,39.03
2019-04-20T04:55:09.545Z,39.37
2019-04-20T04:57:30.485Z,40.67
2019-04-20T05:00:01.771Z,42.27
2019-04-20T05:02:40.593Z,43.13
2019-04-20T05:05:39.216Z,48.53
2019-04-20T05:07:56.524Z,102.30
2019-04-20T05:10:20.804Z,54.57
2019-04-20T05:12:53.234Z,38.80
2019-04-20T05:15:37.348Z,35.47
2019-04-20T05:18:18.383Z,38.83
2019-04-20T05:20:54.567Z,42.93
2019-04-20T05:23:29.538Z,41.60
2019-04-20T05:26:13.786Z,37.20
2019-04-20T05:28:37.107Z,42.67
2019-04-20T05:31:04.877Z,38.53
2019-04-20T05:36:45.049Z,48.63
2019-04-20T05:39:25.207Z,43.70
2019-04-20T05:41:51.381Z,36.47
2019-04-20T05:44:20.946Z,41.93
2019-04-20T05:47:01.087Z,37.30
2019-04-20T05:49:46.817Z,39.57
2019-04-20T05:52:18.752Z,40.07
2019-04-20T05:54:46.066Z,41.30
2019-04-20T05:57:21.085Z,42.90
2019-04-20T05:59:56.034Z,39.03
2019-04-20T06:02:29.439Z,40.67
2019-04-20T06:07:29.626Z,42.97
2019-04-20T06:10:05.986Z,33.47
2019-04-20T06:12:40.345Z,41.43
2019-04-20T06:15:15.407Z,39.40
2019-04-20T06:18:05.121Z,32.40
2019-04-20T06:20:47.844Z,33.13
2019-04-20T06:23:38.711Z,40.30
2019-04-20T06:26:35.216Z,35.80
2019-04-20T06:28:46.521Z,42.67
2019-04-20T06:31:26.600Z,42.07
2019-04-20T06:36:47.462Z,33.80
2019-04-20T06:44:30.296Z,38.20
2019-04-20T06:47:03.655Z,37.93
2019-04-20T06:49:34.453Z,38.30
2019-04-20T06:52:18.648Z,41.97
2019-04-20T06:54:53.755Z,33.63
2019-04-20T06:57:31.049Z,33.97
2019-04-20T07:00:07.424Z,38.33
2019-04-20T07:02:42.844Z,32.47
2019-04-20T07:05:11.869Z,31.00
2019-04-20T07:07:43.417Z,28.33
2019-04-20T07:12:46.726Z,30.50
2019-04-20T07:15:22.724Z,31.33
2019-04-20T07:18:01.713Z,29.33
2019-04-20T07:20:54.092Z,31.80
2019-04-20T07:26:12.538Z,30.30
2019-04-20T07:28:48.583Z,39.33
2019-04-20T07:31:17.206Z,30.93
2019-04-20T07:33:46.359Z,32.77
2019-04-20T07:36:24.481Z,33.23
2019-04-20T07:38:57.955Z,36.87
2019-04-20T07:41:42.011Z,33.07
2019-04-20T07:44:29.988Z,36.27
2019-04-20T07:46:47.170Z,31.23
2019-04-20T07:49:12.931Z,35.93
2019-04-20T07:51:34.991Z,29.23
2019-04-20T07:54:33.351Z,33.73
2019-04-20T07:56:53.887Z,34.30
2019-04-20T07:59:17.868Z,30.30
2019-04-20T08:02:19.203Z,35.47
2019-04-20T08:04:47.122Z,34.77
2019-04-20T08:07:08.925Z,32.30
2019-04-20T08:09:46.536Z,36.27
2019-04-20T08:15:36.456Z,25.70
2019-04-20T08:18:01.183Z,27.33
2019-04-20T08:20:25.687Z,22.70
2019-04-20T08:23:09.710Z,24.17
2019-04-20T08:25:39.901Z,24.80
2019-04-20T08:28:16.678Z,21.50
2019-04-20T08:31:06.112Z,22.67
2019-04-20T08:33:55.470Z,27.13
2019-04-20T08:36:25.744Z,26.87
2019-04-20T08:39:16.599Z,24.67
2019-04-20T08:41:24.991Z,20.00
2019-04-20T08:44:18.716Z,23.20
2019-04-20T08:46:40.330Z,21.40
2019-04-20T08:49:19.410Z,33.90
2019-04-20T08:51:49.804Z,21.57
2019-04-20T08:54:16.515Z,24.30
2019-04-20T08:56:39.047Z,19.03
2019-04-20T08:59:06.624Z,23.37
2019-04-20T09:01:40.873Z,15.20
2019-04-20T09:04:18.771Z,15.10
2019-04-20T09:07:05.555Z,13.20
2019-04-20T09:09:56.495Z,18.40
2019-04-20T09:12:21.102Z,21.77
2019-04-20T09:14:41.835Z,14.35
2019-04-20T09:17:32.396Z,14.30
2019-04-20T09:27:48.808Z,18.65
2019-04-20T09:30:30.319Z,18.37
2019-04-20T09:33:20.747Z,15.53
2019-04-20T09:35:42.953Z,9.50
2019-04-20T09:38:18.061Z,13.00
2019-04-20T09:40:58.452Z,16.10
2019-04-20T09:43:26.203Z,17.70
2019-04-20T09:46:03.603Z,14.68
2019-04-20T09:48:42.863Z,14.95
2019-04-20T09:51:30.632Z,11.80
2019-04-20T09:53:55.011Z,15.53
2019-04-20T09:56:34.541Z,10.40
2019-04-20T09:59:16.824Z,13.70
2019-04-20T10:01:35.163Z,19.05
2019-04-20T10:04:03.481Z,11.30
2019-04-20T10:06:39.300Z,10.85
2019-04-20T10:09:13.720Z,12.98
2019-04-20T10:11:50.819Z,10.98
2019-04-20T10:14:24.730Z,10.25
2019-04-20T10:16:57.970Z,13.22
2019-04-20T10:19:34.048Z,12.53
2019-04-20T10:22:02.863Z,7.80
2019-04-20T10:24:35.294Z,11.38
2019-04-20T10:27:10.795Z,11.40
2019-04-20T10:29:46.188Z,14.10
2019-04-20T10:32:19.609Z,12.33
2019-04-20T10:34:50.648Z,6.95
2019-04-20T10:37:23.891Z,10.20
2019-04-20T10:40:00.518Z,10.15
2019-04-20T10:42:36.255Z,9.55
2019-04-20T10:45:10.883Z,10.15
2019-04-20T10:47:48.130Z,9.70
2019-04-20T10:50:20.913Z,9.88
2019-04-20T10:52:56.004Z,8.70
2019-04-20T10:55:31.334Z,11.70
2019-04-20T10:58:09.343Z,7.50
2019-04-20T11:00:46.755Z,7.20
2019-04-20T11:03:22.798Z,10.82
2019-04-20T11:05:56.462Z,13.10
2019-04-20T11:08:30.602Z,13.30
2019-04-20T11:11:12.935Z,9.60
2019-04-20T11:13:39.336Z,10.48
2019-04-20T11:16:14.759Z,14.55
2019-04-20T11:18:53.535Z,10.35
2019-04-20T11:21:26.392Z,15.83
2019-04-20T11:24:00.416Z,9.55
2019-04-20T11:26:37.072Z,13.80
2019-04-20T11:29:10.444Z,8.35
2019-04-20T11:31:50.824Z,16.90
2019-04-20T11:34:28.652Z,16.85
2019-04-20T11:37:01.267Z,12.93
2019-04-20T11:39:34.845Z,8.85
2019-04-20T11:42:09.977Z,12.58
2019-04-20T11:44:40.213Z,9.25
2019-04-20T11:47:16.818Z,11.50
2019-04-20T11:49:51.264Z,9.10
2019-04-20T11:52:28.210Z,10.38
2019-04-20T11:55:02.412Z,9.88
2019-04-20T11:57:37.671Z,5.95
2019-04-20T12:00:17.252Z,6.25
2019-04-20T12:03:15.887Z,11.68
2019-04-20T12:05:44.475Z,5.97
2019-04-20T12:08:13.842Z,8.05
2019-04-20T12:10:50.230Z,8.13
2019-04-20T12:13:20.560Z,7.67
2019-04-20T12:15:52.171Z,12.00
2019-04-20T12:18:25.467Z,9.03
2019-04-20T12:20:56.750Z,7.97
2019-04-20T12:23:29.024Z,5.17
2019-04-20T12:26:02.029Z,6.95
2019-04-20T12:28:35.861Z,12.35
2019-04-20T12:31:14.759Z,9.85
2019-04-20T12:33:44.336Z,18.23
2019-04-20T12:36:16.669Z,9.03
2019-04-20T12:38:52.903Z,10.38
2019-04-20T12:41:37.468Z,7.28
2019-04-20T12:44:01.795Z,9.90
2019-04-20T12:46:34.039Z,13.72
2019-04-20T12:49:11.682Z,9.03
2019-04-20T12:51:50.667Z,10.95
2019-04-20T12:54:22.689Z,11.20
2019-04-20T12:56:58.609Z,10.78
2019-04-20T12:59:32.009Z,8.15
2019-04-20T13:02:07.178Z,8.25
2019-04-20T13:04:42.070Z,5.20
2019-04-20T13:07:17.699Z,5.15
2019-04-20T13:09:54.902Z,10.90
2019-04-20T13:12:30.358Z,10.53
2019-04-20T13:15:26.541Z,87.78
2019-04-20T13:17:59.006Z,9.20
2019-04-20T13:20:30.046Z,7.35
2019-04-20T13:23:04.444Z,4.55
2019-04-20T13:25:41.204Z,5.30
2019-04-20T13:28:13.116Z,5.50
2019-04-20T13:30:45.967Z,5.40
2019-04-20T13:33:19.753Z,6.03
2019-04-20T13:35:52.241Z,7.40
2019-04-20T13:38:25.907Z,10.93
2019-04-20T13:40:59.825Z,9.63
2019-04-20T13:43:32.045Z,8.95
2019-04-20T13:46:04.957Z,5.65
2019-04-20T13:48:41.473Z,9.08
2019-04-20T13:51:16.738Z,9.25
2019-04-20T13:53:48.903Z,6.37
2019-04-20T13:56:20.154Z,7.00
2019-04-20T13:58:51.910Z,5.67
2019-04-20T14:01:39.881Z,8.38
2019-04-20T14:04:20.945Z,12.60
2019-04-20T14:06:53.343Z,7.60
2019-04-20T14:09:27.461Z,9.73
2019-04-20T14:12:14.086Z,8.33
2019-04-20T14:14:35.291Z,8.23
2019-04-20T14:17:07.552Z,10.08
2019-04-20T14:19:39.220Z,3.83
2019-04-20T14:22:20.859Z,4.53
2019-04-20T14:24:57.356Z,7.37
2019-04-20T14:27:28.972Z,7.72
2019-04-20T14:30:03.999Z,6.10
2019-04-20T14:32:36.809Z,6.33
2019-04-20T14:35:14.526Z,6.70
2019-04-20T14:37:45.973Z,7.50
2019-04-20T14:40:20.336Z,5.58
2019-04-20T14:42:54.684Z,4.50
2019-04-20T14:45:24.765Z,4.28
2019-04-20T14:48:01.676Z,7.62
2019-04-20T14:50:35.808Z,8.18
2019-04-20T14:53:07.617Z,10.05
2019-04-20T14:55:39.637Z,10.20
2019-04-20T15:01:39.155Z,10.72
2019-04-20T15:04:17.978Z,8.60
2019-04-20T15:06:48.680Z,15.50
2019-04-20T15:09:21.046Z,9.33
2019-04-20T15:11:56.904Z,8.93
2019-04-20T15:14:29.939Z,7.60
2019-04-20T15:17:02.530Z,6.63
2019-04-20T15:19:53.783Z,10.57
2019-04-20T15:22:31.886Z,7.77
2019-04-20T15:25:05.423Z,8.27
2019-04-20T15:27:42.966Z,9.77
2019-04-20T15:30:12.329Z,10.83
2019-04-20T15:32:44.922Z,8.83
2019-04-20T15:35:19.037Z,6.93
2019-04-20T15:37:51.071Z,10.50
2019-04-20T15:40:26.950Z,7.40
2019-04-20T15:43:09.559Z,8.40
2019-04-20T15:45:36.975Z,8.50
2019-04-20T15:48:07.937Z,5.87
2019-04-20T15:50:41.489Z,9.57
2019-04-20T15:53:17.469Z,8.67
2019-04-20T15:55:55.315Z,5.60
2019-04-20T15:58:28.628Z,7.73
2019-04-20T16:00:58.570Z,11.27
2019-04-20T16:03:32.999Z,4.97
2019-04-20T16:06:09.798Z,5.37
2019-04-20T16:08:42.319Z,4.17
2019-04-20T16:11:17.196Z,6.00
2019-04-20T16:13:53.581Z,6.73
2019-04-20T16:16:21.736Z,10.43
2019-04-20T16:18:52.904Z,13.13
2019-04-20T16:21:28.478Z,8.63
2019-04-20T16:24:01.341Z,13.87
2019-04-20T16:26:33.493Z,10.57
2019-04-20T16:29:06.768Z,5.57
2019-04-20T16:31:40.554Z,11.20
2019-04-20T16:34:11.763Z,6.57
2019-04-20T16:36:54.344Z,5.33
2019-04-20T16:39:22.666Z,6.50
2019-04-20T16:41:56.267Z,6.60
2019-04-20T16:44:29.217Z,3.53
2019-04-20T16:47:10.615Z,5.30
2019-04-20T16:52:16.835Z,3.57
2019-04-20T16:54:48.587Z,12.37
2019-04-20T16:57:21.505Z,11.83
2019-04-20T16:59:56.439Z,24.03
2019-04-20T17:02:26.529Z,7.13
2019-04-20T17:05:00.850Z,22.30
2019-04-20T17:07:35.264Z,5.43
2019-04-20T17:12:43.854Z,10.97
2019-04-20T17:15:16.611Z,12.43
2019-04-20T17:17:51.383Z,10.10
2019-04-20T17:20:21.996Z,9.40
2019-04-20T17:22:56.239Z,12.73
2019-04-20T17:25:28.350Z,16.27
2019-04-20T17:28:00.299Z,11.30
2019-04-20T17:30:42.103Z,7.60
2019-04-20T17:35:54.161Z,7.97
2019-04-20T17:38:20.632Z,8.33
2019-04-20T17:41:11.763Z,7.57
2019-04-20T17:43:38.313Z,11.27
2019-04-20T17:46:08.133Z,9.03
2019-04-20T17:48:43.006Z,9.43
2019-04-20T17:51:28.688Z,8.10
2019-04-20T17:53:55.952Z,7.57
2019-04-20T17:56:24.478Z,6.73
2019-04-20T17:58:58.547Z,6.63
2019-04-20T18:01:48.935Z,7.83
2019-04-20T18:04:41.817Z,12.63
2019-04-20T18:06:54.991Z,24.53
2019-04-20T18:09:40.157Z,36.83
2019-04-20T18:11:52.759Z,25.80
2019-04-20T18:14:37.384Z,65.03
2019-04-20T18:17:28.246Z,50.47
2019-04-20T18:19:46.913Z,33.90
2019-04-20T18:22:19.793Z,32.97
2019-04-20T18:25:12.185Z,26.20
2019-04-20T18:27:44.008Z,21.27
2019-04-20T18:30:10.758Z,21.93
2019-04-20T18:32:37.784Z,12.27
2019-04-20T18:35:34.785Z,11.73
2019-04-20T18:38:09.747Z,7.90
2019-04-20T18:40:49.303Z,6.27
2019-04-20T18:43:18.784Z,8.93
2019-04-20T18:46:08.214Z,10.37
2019-04-20T18:50:54.838Z,7.67
2019-04-20T18:53:34.468Z,7.87
2019-04-20T18:56:01.195Z,12.80
2019-04-20T18:58:33.224Z,7.37
2019-04-20T19:01:05.445Z,7.13
2019-04-20T19:03:41.935Z,11.77
2019-04-20T19:06:11.196Z,7.43
2019-04-20T19:08:49.906Z,9.17
2019-04-20T19:11:23.192Z,10.17
2019-04-20T19:14:18.218Z,6.77
2019-04-20T19:16:58.074Z,7.27
2019-04-20T19:19:32.124Z,11.90
2019-04-20T19:21:56.225Z,15.37
2019-04-20T19:24:32.800Z,9.00
2019-04-20T19:27:10.285Z,12.00
2019-04-20T19:29:46.143Z,9.03
2019-04-20T19:32:34.176Z,10.40
2019-04-20T19:35:01.273Z,12.10
2019-04-20T19:37:28.510Z,11.07
2019-04-20T19:40:08.170Z,11.73
2019-04-20T19:42:42.318Z,8.90
2019-04-20T19:47:55.727Z,13.40
2019-04-20T19:50:41.349Z,14.60
2019-04-20T19:53:23.358Z,12.17
2019-04-20T19:55:47.822Z,11.50
2019-04-20T19:58:20.197Z,14.23
2019-04-20T20:00:52.177Z,16.73
2019-04-20T20:03:27.938Z,12.53
2019-04-20T20:06:01.515Z,11.70
2019-04-20T20:08:36.470Z,14.27
2019-04-20T20:11:09.746Z,14.17
2019-04-20T20:16:25.803Z,19.27
2019-04-20T20:18:59.913Z,17.97
2019-04-20T20:21:35.258Z,12.60
2019-04-20T20:23:56.405Z,11.50
2019-04-20T20:26:33.545Z,12.53
2019-04-20T20:29:09.551Z,17.63
2019-04-20T20:31:51.338Z,12.47
2019-04-20T20:34:15.716Z,16.83
2019-04-20T20:36:47.159Z,9.40
2019-04-20T20:39:22.506Z,10.10
2019-04-20T20:41:58.063Z,12.37
2019-04-20T20:47:12.881Z,13.43
2019-04-20T20:50:03.593Z,14.53
2019-04-20T20:52:29.141Z,22.90
2019-04-20T20:54:57.536Z,23.60
2019-04-20T20:57:22.413Z,21.70
2019-04-20T20:59:57.397Z,25.57
2019-04-20T21:02:38.995Z,24.77
2019-04-20T21:04:57.706Z,24.03
2019-04-20T21:07:29.283Z,35.50
2019-04-20T21:10:06.162Z,40.30
2019-04-20T21:12:46.493Z,47.70
2019-04-20T21:15:20.331Z,47.13
2019-04-20T21:18:10.750Z,50.93
2019-04-20T21:20:44.880Z,62.27
2019-04-20T21:23:13.569Z,71.23
2019-04-20T21:25:44.184Z,70.23
2019-04-20T21:28:11.380Z,74.17
2019-04-20T21:30:45.143Z,69.67
2019-04-20T21:33:20.667Z,82.07
2019-04-20T21:35:52.180Z,88.00
2019-04-20T21:38:24.953Z,102.20
2019-04-20T21:41:03.471Z,92.10
2019-04-20T21:46:07.215Z,48.23
2019-04-20T21:48:51.797Z,58.50
2019-04-20T21:51:25.784Z,54.13
2019-04-20T21:53:44.284Z,49.70
2019-04-20T21:56:16.087Z,57.30
2019-04-20T21:58:54.487Z,59.07
2019-04-20T22:01:27.279Z,57.80
2019-04-20T22:03:56.212Z,49.77
2019-04-20T22:06:28.525Z,44.87
2019-04-20T22:09:05.643Z,54.43
2019-04-20T22:11:37.870Z,58.97
2019-04-20T22:14:17.297Z,63.70
2019-04-20T22:16:49.692Z,73.63
2019-04-20T22:19:34.200Z,67.30
2019-04-20T22:22:05.491Z,86.90
2019-04-20T22:24:46.538Z,90.67
2019-04-20T22:27:13.085Z,95.07
2019-04-20T22:29:38.467Z,111.93
2019-04-20T22:32:13.747Z,108.47
2019-04-20T22:34:47.579Z,84.53
2019-04-20T22:37:22.018Z,87.80
2019-04-20T22:39:56.286Z,87.93
2019-04-20T22:42:31.397Z,88.60
2019-04-20T22:45:06.464Z,87.83
2019-04-20T22:47:34.394Z,92.97
2019-04-20T22:50:30.951Z,88.90
2019-04-20T22:52:50.405Z,85.30
2019-04-20T22:55:39.019Z,82.80
2019-04-20T22:57:57.180Z,83.77
2019-04-20T23:00:31.270Z,67.73
2019-04-20T23:02:54.605Z,60.03
2019-04-20T23:05:24.757Z,65.97
2019-04-20T23:10:34.913Z,42.50
2019-04-20T23:13:03.234Z,46.10
2019-04-20T23:15:36.371Z,44.30
2019-04-20T23:18:06.877Z,34.23
2019-04-20T23:21:00.372Z,46.37
2019-04-20T23:23:28.992Z,44.77
2019-04-20T23:26:01.124Z,63.07
2019-04-20T23:28:33.347Z,48.00
2019-04-20T23:31:11.677Z,52.67
2019-04-20T23:33:38.082Z,61.07
2019-04-20T23:36:08.510Z,52.93
2019-04-20T23:38:44.251Z,54.67
2019-04-20T23:41:13.572Z,53.70
2019-04-20T23:44:04.180Z,54.30
2019-04-20T23:46:33.250Z,59.50
2019-04-20T23:49:26.059Z,65.77
2019-04-20T23:52:21.691Z,57.00
2019-04-20T23:54:33.206Z,50.50
2019-04-20T23:57:03.820Z,41.37
2019-04-20T23:59:39.598Z,47.37
